createdAt,value
2019-05-03T00:00:22.360Z,99.90
2019-05-03T00:03:05.763Z,99.90
2019-05-03T00:05:36.554Z,99.90
2019-05-03T00:08:04.243Z,99.90
2019-05-03T00:10:31.760Z,99.90
2019-05-03T00:12:58.307Z,99.90
2019-05-03T00:15:29.016Z,99.90
2019-05-03T00:17:55.191Z,99.90
2019-05-03T00:20:21.946Z,99.90
2019-05-03T00:22:48.490Z,99.90
2019-05-03T00:25:14.654Z,99.90
2019-05-03T00:27:42.649Z,99.90
2019-05-03T00:30:09.163Z,99.90
2019-05-03T00:32:35.323Z,99.90
2019-05-03T00:35:20.030Z,99.90
2019-05-03T00:37:57.095Z,99.90
2019-05-03T00:40:29.253Z,99.90
2019-05-03T00:42:56.615Z,99.90
2019-05-03T00:45:23.056Z,99.70
2019-05-03T00:47:49.214Z,99.90
2019-05-03T00:50:15.373Z,99.90
2019-05-03T00:52:42.339Z,99.90
2019-05-03T00:55:16.122Z,99.90
2019-05-03T00:57:37.472Z,99.60
2019-05-03T01:00:05.831Z,99.70
2019-05-03T01:02:32.412Z,99.90
2019-05-03T01:04:58.578Z,98.90
2019-05-03T01:07:24.875Z,99.50
2019-05-03T01:09:51.765Z,99.20
2019-05-03T01:12:18.467Z,99.50
2019-05-03T01:14:46.530Z,99.70
2019-05-03T01:17:12.671Z,99.20
2019-05-03T01:19:38.838Z,99.70
2019-05-03T01:22:04.975Z,99.20
2019-05-03T01:24:32.282Z,99.40
2019-05-03T01:26:58.703Z,99.50
2019-05-03T01:29:24.868Z,99.00
2019-05-03T01:31:52.756Z,98.80
2019-05-03T01:34:19.187Z,98.70
2019-05-03T01:36:45.630Z,98.90
2019-05-03T01:39:12.790Z,99.30
2019-05-03T01:41:39.044Z,99.50
2019-05-03T01:44:05.381Z,99.50
2019-05-03T01:46:31.663Z,99.70
2019-05-03T01:49:05.455Z,99.30
2019-05-03T01:51:49.904Z,99.50
2019-05-03T01:54:16.054Z,99.60
2019-05-03T01:56:55.338Z,99.90
2019-05-03T01:59:12.244Z,99.90
2019-05-03T02:01:42.189Z,99.90
2019-05-03T02:04:12.226Z,99.90
2019-05-03T02:06:38.762Z,99.90
2019-05-03T02:09:06.814Z,99.90
2019-05-03T02:11:33.390Z,99.90
2019-05-03T02:14:01.383Z,99.90
2019-05-03T02:16:27.866Z,99.90
2019-05-03T02:18:54.022Z,99.90
2019-05-03T02:21:21.659Z,99.90
2019-05-03T02:23:48.300Z,99.80
2019-05-03T02:26:14.462Z,99.90
2019-05-03T02:28:42.170Z,99.90
2019-05-03T02:31:08.494Z,99.80
2019-05-03T02:33:34.699Z,99.90
2019-05-03T02:36:03.615Z,99.90
2019-05-03T02:38:29.577Z,99.90
2019-05-03T02:40:55.744Z,99.90
2019-05-03T02:43:26.131Z,99.90
2019-05-03T02:46:10.089Z,99.90
2019-05-03T02:48:45.697Z,99.90
2019-05-03T02:51:12.046Z,99.90
2019-05-03T02:53:38.484Z,99.90
2019-05-03T02:56:15.177Z,99.90
2019-05-03T02:58:35.679Z,99.90
2019-05-03T03:01:02.031Z,99.90
2019-05-03T03:03:29.447Z,99.90
2019-05-03T03:05:58.125Z,99.90
2019-05-03T03:08:26.668Z,99.90
2019-05-03T03:10:59.474Z,99.90
2019-05-03T03:13:32.448Z,99.90
2019-05-03T03:16:06.805Z,99.90
2019-05-03T03:18:36.612Z,99.90
2019-05-03T03:21:05.846Z,99.90
2019-05-03T03:23:46.104Z,99.90
2019-05-03T03:26:32.901Z,99.90
2019-05-03T03:28:46.392Z,99.90
2019-05-03T03:31:28.953Z,99.90
2019-05-03T03:33:59.560Z,99.90
2019-05-03T03:36:48.511Z,99.90
2019-05-03T03:38:55.418Z,99.90
2019-05-03T03:41:24.923Z,99.90
2019-05-03T03:43:55.554Z,99.90
2019-05-03T03:46:25.177Z,99.90
2019-05-03T03:48:55.843Z,99.90
2019-05-03T03:51:22.691Z,99.90
2019-05-03T03:53:51.854Z,99.90
2019-05-03T03:56:19.918Z,97.60
2019-05-03T03:58:46.597Z,97.10
2019-05-03T04:01:15.711Z,97.40
2019-05-03T04:03:45.755Z,97.40
2019-05-03T04:06:10.930Z,97.40
2019-05-03T04:08:38.106Z,97.60
2019-05-03T04:11:06.262Z,97.50
2019-05-03T04:13:32.783Z,97.80
2019-05-03T04:16:11.583Z,97.90
2019-05-03T04:18:42.620Z,97.50
2019-05-03T04:21:09.479Z,97.20
2019-05-03T04:23:36.791Z,97.10
2019-05-03T04:26:03.176Z,97.00
2019-05-03T04:28:30.955Z,97.40
2019-05-03T04:30:57.244Z,98.20
2019-05-03T04:33:23.410Z,98.20
2019-05-03T04:35:49.683Z,98.60
2019-05-03T04:38:17.787Z,98.60
2019-05-03T04:40:45.322Z,98.90
2019-05-03T04:43:13.127Z,98.80
2019-05-03T04:45:41.020Z,99.20
2019-05-03T04:48:07.272Z,99.50
2019-05-03T04:50:36.367Z,99.10
2019-05-03T04:53:02.214Z,99.10
2019-05-03T04:55:28.422Z,99.00
2019-05-03T04:57:56.069Z,98.70
2019-05-03T05:00:25.791Z,99.00
2019-05-03T05:02:51.028Z,99.10
2019-05-03T05:05:17.179Z,99.00
2019-05-03T05:07:45.659Z,99.10
2019-05-03T05:10:11.987Z,99.90
2019-05-03T05:12:38.419Z,99.50
2019-05-03T05:15:05.880Z,97.70
2019-05-03T05:17:37.000Z,97.50
2019-05-03T05:20:10.209Z,97.70
2019-05-03T05:22:37.951Z,97.20
2019-05-03T05:25:07.068Z,96.70
2019-05-03T05:27:48.323Z,96.80
2019-05-03T05:30:06.328Z,96.90
2019-05-03T05:32:32.486Z,96.00
2019-05-03T05:34:58.630Z,95.90
2019-05-03T05:37:25.081Z,96.60
2019-05-03T05:39:51.364Z,97.10
2019-05-03T05:42:17.509Z,97.30
2019-05-03T05:44:45.364Z,97.00
2019-05-03T05:47:16.224Z,97.50
2019-05-03T05:49:44.458Z,97.40
2019-05-03T05:52:10.752Z,96.60
2019-05-03T05:54:38.831Z,96.00
2019-05-03T05:57:08.486Z,94.20
2019-05-03T05:59:46.015Z,93.90
2019-05-03T06:02:12.041Z,94.50
2019-05-03T06:04:38.062Z,92.30
2019-05-03T06:07:08.902Z,93.90
2019-05-03T06:09:39.794Z,93.10
2019-05-03T06:12:10.871Z,93.10
2019-05-03T06:14:54.459Z,92.70
2019-05-03T06:17:25.332Z,91.00
2019-05-03T06:19:55.014Z,90.90
2019-05-03T06:22:26.309Z,90.80
2019-05-03T06:25:06.714Z,89.30
2019-05-03T06:27:34.895Z,88.60
2019-05-03T06:30:04.712Z,90.40
2019-05-03T06:32:34.534Z,90.20
2019-05-03T06:35:00.702Z,89.50
2019-05-03T06:37:31.395Z,89.70
2019-05-03T06:39:57.419Z,90.10
2019-05-03T06:42:25.336Z,89.00
2019-05-03T06:44:54.454Z,88.70
2019-05-03T06:47:20.410Z,86.60
2019-05-03T06:49:48.461Z,87.80
2019-05-03T06:52:14.830Z,86.90
2019-05-03T06:54:40.970Z,87.80
2019-05-03T06:57:09.635Z,86.60
2019-05-03T06:59:45.161Z,87.20
2019-05-03T07:02:25.557Z,86.90
2019-05-03T07:04:56.192Z,88.10
2019-05-03T07:07:32.950Z,85.00
2019-05-03T07:10:14.900Z,83.80
2019-05-03T07:13:00.012Z,81.50
2019-05-03T07:15:27.670Z,80.90
2019-05-03T07:17:55.661Z,80.20
2019-05-03T07:20:22.256Z,76.20
2019-05-03T07:22:48.382Z,76.50
2019-05-03T07:25:14.932Z,70.30
2019-05-03T07:27:41.446Z,68.00
2019-05-03T07:30:07.803Z,68.60
2019-05-03T07:32:34.823Z,70.50
2019-05-03T07:35:00.957Z,68.00
2019-05-03T07:37:27.003Z,69.30
2019-05-03T07:39:53.030Z,68.20
2019-05-03T07:42:19.091Z,66.80
2019-05-03T07:44:45.258Z,66.90
2019-05-03T07:47:11.403Z,67.60
2019-05-03T07:49:37.558Z,70.20
2019-05-03T07:52:05.627Z,69.20
2019-05-03T07:54:31.892Z,67.10
2019-05-03T07:56:59.931Z,66.90
2019-05-03T07:59:26.119Z,65.00
2019-05-03T08:01:55.391Z,65.70
2019-05-03T08:04:21.557Z,62.80
2019-05-03T08:06:47.799Z,61.00
2019-05-03T08:09:15.338Z,59.50
2019-05-03T08:11:41.748Z,57.20
2019-05-03T08:14:07.925Z,59.90
2019-05-03T08:16:35.272Z,60.80
2019-05-03T08:19:04.903Z,59.60
2019-05-03T08:21:31.317Z,59.80
2019-05-03T08:23:57.358Z,63.80
2019-05-03T08:26:25.081Z,62.70
2019-05-03T08:28:51.690Z,60.50
2019-05-03T08:31:37.627Z,64.20
2019-05-03T08:34:22.856Z,65.00
2019-05-03T08:36:50.930Z,65.40
2019-05-03T08:39:17.325Z,65.10
2019-05-03T08:41:45.379Z,67.10
2019-05-03T08:44:11.535Z,68.30
2019-05-03T08:46:37.856Z,66.30
2019-05-03T08:49:05.168Z,68.40
2019-05-03T08:51:31.683Z,68.50
2019-05-03T08:53:57.823Z,67.20
2019-05-03T08:56:24.581Z,68.70
2019-05-03T08:58:50.941Z,68.70
2019-05-03T09:01:17.098Z,68.80
2019-05-03T09:03:43.248Z,67.50
2019-05-03T09:06:09.412Z,67.60
2019-05-03T09:08:35.606Z,68.40
2019-05-03T09:11:05.034Z,70.20
2019-05-03T09:13:36.183Z,71.00
2019-05-03T09:16:02.361Z,71.60
2019-05-03T09:18:28.884Z,72.00
2019-05-03T09:20:55.486Z,70.30
2019-05-03T09:23:25.469Z,67.60
2019-05-03T09:25:49.920Z,63.80
2019-05-03T09:28:16.357Z,61.40
2019-05-03T09:30:44.601Z,61.20
2019-05-03T09:33:10.876Z,58.00
2019-05-03T09:35:37.333Z,56.90
2019-05-03T09:38:05.712Z,53.80
2019-05-03T09:40:32.174Z,56.40
2019-05-03T09:42:58.643Z,54.90
2019-05-03T09:45:24.786Z,57.10
2019-05-03T09:47:50.935Z,57.90
2019-05-03T09:50:17.186Z,59.30
2019-05-03T09:52:46.872Z,56.20
2019-05-03T09:55:22.124Z,56.10
2019-05-03T09:57:48.506Z,56.80
2019-05-03T10:00:16.557Z,59.30
2019-05-03T10:02:44.878Z,58.40
2019-05-03T10:05:11.355Z,59.60
2019-05-03T10:07:37.507Z,60.90
2019-05-03T10:10:05.763Z,62.40
2019-05-03T10:12:32.015Z,62.70
2019-05-03T10:14:58.486Z,61.90
2019-05-03T10:17:35.431Z,60.10
2019-05-03T10:20:05.895Z,59.10
2019-05-03T10:22:32.055Z,58.50
2019-05-03T10:24:58.192Z,58.40
2019-05-03T10:27:25.159Z,57.80
2019-05-03T10:29:51.399Z,57.00
2019-05-03T10:32:19.469Z,54.90
2019-05-03T10:34:56.280Z,55.20
2019-05-03T10:37:30.490Z,55.00
2019-05-03T10:39:58.146Z,56.40
2019-05-03T10:42:24.523Z,54.70
2019-05-03T10:44:50.686Z,53.00
2019-05-03T10:47:16.839Z,54.40
2019-05-03T10:49:43.002Z,56.20
2019-05-03T10:52:09.952Z,56.50
2019-05-03T10:54:36.128Z,57.30
2019-05-03T10:57:07.451Z,57.20
2019-05-03T10:59:35.506Z,57.50
2019-05-03T11:02:03.880Z,58.20
2019-05-03T11:04:30.653Z,57.70
2019-05-03T11:06:56.815Z,56.10
2019-05-03T11:09:25.808Z,56.50
2019-05-03T11:11:55.303Z,54.80
2019-05-03T11:14:20.859Z,55.90
2019-05-03T11:16:47.026Z,56.50
2019-05-03T11:19:14.533Z,56.60
2019-05-03T11:21:40.915Z,55.60
2019-05-03T11:24:07.074Z,54.80
2019-05-03T11:26:35.021Z,54.10
2019-05-03T11:29:01.865Z,55.30
2019-05-03T11:31:45.072Z,52.20
2019-05-03T11:34:22.370Z,52.50
2019-05-03T11:36:51.606Z,54.00
2019-05-03T11:39:17.758Z,55.70
2019-05-03T11:41:46.130Z,56.00
2019-05-03T11:44:30.752Z,56.70
2019-05-03T11:46:56.895Z,55.70
2019-05-03T11:49:25.316Z,54.20
2019-05-03T11:51:51.440Z,54.80
2019-05-03T11:54:17.603Z,55.60
2019-05-03T11:56:44.944Z,57.50
2019-05-03T11:59:11.363Z,57.60
2019-05-03T12:01:39.456Z,58.70
2019-05-03T12:04:05.611Z,58.50
2019-05-03T12:06:31.755Z,59.00
2019-05-03T12:08:57.909Z,57.60
2019-05-03T12:11:25.069Z,56.30
2019-05-03T12:19:52.034Z,51.90
2019-05-03T12:22:19.148Z,52.40
2019-05-03T12:24:46.666Z,50.80
2019-05-03T12:27:15.008Z,51.10
2019-05-03T12:29:41.323Z,51.60
2019-05-03T12:32:07.481Z,51.40
2019-05-03T12:34:35.253Z,48.00
2019-05-03T12:37:04.953Z,49.10
2019-05-03T12:39:30.995Z,49.50
2019-05-03T12:41:57.174Z,49.10
2019-05-03T12:44:24.675Z,48.60
2019-05-03T12:46:51.103Z,50.10
2019-05-03T12:49:17.267Z,48.40
2019-05-03T12:51:45.175Z,49.10
2019-05-03T12:54:11.444Z,48.70
2019-05-03T12:56:37.595Z,48.10
2019-05-03T12:59:05.970Z,47.70
2019-05-03T13:01:41.768Z,49.20
2019-05-03T13:04:07.247Z,49.90
2019-05-03T13:06:35.323Z,49.20
2019-05-03T13:09:05.583Z,49.70
2019-05-03T13:11:34.721Z,48.90
2019-05-03T13:14:01.980Z,49.90
2019-05-03T13:16:28.175Z,50.40
2019-05-03T13:18:55.353Z,49.60
2019-05-03T13:21:21.764Z,50.10
2019-05-03T13:23:47.984Z,50.10
2019-05-03T13:26:14.852Z,50.40
2019-05-03T13:28:41.219Z,49.30
2019-05-03T13:31:07.375Z,49.30
2019-05-03T13:33:34.768Z,50.10
2019-05-03T13:36:01.594Z,50.50
2019-05-03T13:38:27.979Z,50.40
2019-05-03T13:40:54.406Z,50.50
2019-05-03T13:43:20.917Z,52.10
2019-05-03T13:45:47.086Z,52.00
2019-05-03T13:48:15.270Z,52.10
2019-05-03T13:50:41.402Z,52.80
2019-05-03T13:53:07.543Z,51.90
2019-05-03T13:55:35.278Z,53.20
2019-05-03T13:58:01.950Z,52.00
2019-05-03T14:00:29.175Z,52.60
2019-05-03T14:02:56.336Z,52.50
2019-05-03T14:05:24.546Z,53.00
2019-05-03T14:07:51.230Z,54.00
2019-05-03T14:10:17.619Z,52.90
2019-05-03T14:12:45.490Z,53.60
2019-05-03T14:15:14.885Z,52.10
2019-05-03T14:17:41.371Z,51.90
2019-05-03T14:20:10.026Z,52.40
2019-05-03T14:22:38.167Z,52.20
2019-05-03T14:25:05.375Z,52.00
2019-05-03T14:27:31.541Z,52.30
2019-05-03T14:29:57.683Z,52.10
2019-05-03T14:32:26.763Z,52.50
2019-05-03T14:34:54.587Z,53.00
2019-05-03T14:37:20.454Z,52.80
2019-05-03T14:39:46.931Z,51.80
2019-05-03T14:42:15.231Z,53.10
2019-05-03T14:44:41.217Z,55.00
2019-05-03T14:47:07.374Z,56.40
2019-05-03T14:49:34.617Z,57.10
2019-05-03T14:52:01.130Z,56.80
2019-05-03T14:54:29.160Z,57.60
2019-05-03T14:56:57.326Z,58.20
2019-05-03T14:59:26.394Z,58.60
2019-05-03T15:01:57.099Z,59.90
2019-05-03T15:04:25.426Z,59.60
2019-05-03T15:06:51.481Z,60.50
2019-05-03T15:09:19.130Z,61.10
2019-05-03T15:11:45.517Z,61.50
2019-05-03T15:14:12.117Z,62.60
2019-05-03T15:16:38.478Z,62.20
2019-05-03T15:19:05.436Z,62.40
2019-05-03T15:21:31.818Z,61.70
2019-05-03T15:23:58.000Z,61.50
2019-05-03T15:26:24.820Z,62.40
2019-05-03T15:28:51.223Z,62.40
2019-05-03T15:31:17.436Z,62.10
2019-05-03T15:33:44.963Z,62.40
2019-05-03T15:36:11.354Z,63.70
2019-05-03T15:38:37.518Z,63.60
2019-05-03T15:41:05.417Z,64.50
2019-05-03T15:43:44.950Z,64.80
2019-05-03T15:46:22.156Z,65.00
2019-05-03T15:48:55.773Z,65.50
2019-05-03T15:51:24.530Z,67.00
2019-05-03T15:53:50.978Z,66.60
2019-05-03T15:56:17.130Z,67.60
2019-05-03T15:58:46.393Z,68.30
2019-05-03T16:01:11.351Z,68.40
2019-05-03T16:03:37.634Z,67.90
2019-05-03T16:06:04.900Z,68.60
2019-05-03T16:08:31.348Z,70.60
2019-05-03T16:10:57.495Z,70.00
2019-05-03T16:13:25.171Z,68.30
2019-05-03T16:15:52.066Z,69.30
2019-05-03T16:18:18.466Z,67.90
2019-05-03T16:20:45.074Z,67.70
2019-05-03T16:23:11.404Z,67.60
2019-05-03T16:25:37.875Z,67.70
2019-05-03T16:28:11.995Z,68.80
2019-05-03T16:30:42.879Z,66.90
2019-05-03T16:33:22.421Z,67.10
2019-05-03T16:35:37.879Z,67.70
2019-05-03T16:38:06.026Z,67.80
2019-05-03T16:40:34.456Z,67.00
2019-05-03T16:43:00.850Z,66.50
2019-05-03T16:45:27.027Z,67.30
2019-05-03T16:47:53.361Z,66.50
2019-05-03T16:50:19.947Z,66.00
2019-05-03T16:52:46.262Z,66.10
2019-05-03T16:55:16.138Z,66.20
2019-05-03T16:57:40.887Z,65.50
2019-05-03T17:00:08.346Z,66.40
2019-05-03T17:02:35.102Z,66.10
2019-05-03T17:05:14.992Z,65.50
2019-05-03T17:07:46.029Z,65.30
2019-05-03T17:10:20.325Z,65.70
2019-05-03T17:12:46.488Z,66.30
2019-05-03T17:15:14.473Z,67.30
2019-05-03T17:17:40.691Z,66.80
2019-05-03T17:20:07.019Z,67.00
2019-05-03T17:22:34.496Z,66.20
2019-05-03T17:25:00.950Z,67.20
2019-05-03T17:27:27.266Z,67.10
2019-05-03T17:29:55.253Z,67.20
2019-05-03T17:32:21.618Z,67.20
2019-05-03T17:34:48.062Z,67.20
2019-05-03T17:37:14.379Z,66.40
2019-05-03T17:39:45.501Z,67.20
2019-05-03T17:42:29.827Z,67.20
2019-05-03T17:44:55.974Z,67.80
2019-05-03T17:47:22.366Z,68.00
2019-05-03T17:49:48.872Z,67.80
2019-05-03T17:52:16.924Z,67.70
2019-05-03T17:54:45.222Z,67.80
2019-05-03T17:57:15.026Z,68.30
2019-05-03T17:59:44.456Z,68.90
2019-05-03T18:02:27.270Z,68.70
2019-05-03T18:05:11.878Z,68.90
2019-05-03T18:07:57.834Z,68.60
2019-05-03T18:10:25.301Z,68.60
2019-05-03T18:12:51.464Z,69.10
2019-05-03T18:15:18.607Z,69.70
2019-05-03T18:17:45.373Z,70.20
2019-05-03T18:20:11.867Z,69.90
2019-05-03T18:22:38.415Z,70.40
2019-05-03T18:25:05.099Z,70.00
2019-05-03T18:27:31.454Z,71.00
2019-05-03T18:29:57.631Z,71.00
2019-05-03T18:32:25.171Z,71.30
2019-05-03T18:34:51.735Z,71.60
2019-05-03T18:37:18.331Z,71.90
2019-05-03T18:39:45.220Z,71.90
2019-05-03T18:42:13.918Z,72.50
2019-05-03T18:44:48.901Z,71.70
2019-05-03T18:47:22.546Z,71.20
2019-05-03T18:49:48.711Z,72.20
2019-05-03T18:52:15.014Z,72.10
2019-05-03T18:54:41.706Z,72.50
2019-05-03T18:57:07.866Z,73.00
2019-05-03T18:59:34.142Z,73.50
2019-05-03T19:02:00.884Z,74.00
2019-05-03T19:04:34.612Z,74.20
2019-05-03T19:07:04.350Z,75.20
2019-05-03T19:09:27.751Z,75.40
2019-05-03T19:11:55.820Z,76.30
2019-05-03T19:14:25.353Z,76.60
2019-05-03T19:16:54.550Z,76.60
2019-05-03T19:19:24.588Z,77.10
2019-05-03T19:21:50.943Z,77.10
2019-05-03T19:24:17.774Z,77.50
2019-05-03T19:26:45.093Z,77.40
2019-05-03T19:29:11.386Z,77.10
2019-05-03T19:31:37.659Z,78.00
2019-05-03T19:34:05.937Z,78.10
2019-05-03T19:36:31.967Z,77.90
2019-05-03T19:38:58.144Z,78.60
2019-05-03T19:41:25.155Z,78.20
2019-05-03T19:43:52.296Z,78.30
2019-05-03T19:46:18.626Z,78.70
2019-05-03T19:48:45.872Z,78.30
2019-05-03T19:51:12.319Z,79.00
2019-05-03T19:53:54.909Z,79.30
2019-05-03T19:56:21.024Z,79.70
2019-05-03T19:58:47.633Z,80.10
2019-05-03T20:01:21.827Z,80.70
2019-05-03T20:03:50.191Z,80.50
2019-05-03T20:06:27.258Z,81.00
2019-05-03T20:08:55.635Z,80.60
2019-05-03T20:11:21.860Z,81.50
2019-05-03T20:13:48.282Z,81.50
2019-05-03T20:16:15.629Z,81.70
2019-05-03T20:18:45.055Z,81.90
2019-05-03T20:21:10.610Z,82.30
2019-05-03T20:23:37.394Z,84.10
2019-05-03T20:26:05.031Z,84.90
2019-05-03T20:28:33.110Z,85.50
2019-05-03T20:30:59.663Z,85.80
2019-05-03T20:33:25.955Z,86.70
2019-05-03T20:35:54.316Z,87.00
2019-05-03T20:38:20.499Z,87.50
2019-05-03T20:40:46.646Z,88.50
2019-05-03T20:43:30.529Z,87.90
2019-05-03T20:46:10.354Z,90.50
2019-05-03T20:48:36.524Z,90.20
2019-05-03T20:51:03.021Z,90.40
2019-05-03T20:53:29.306Z,90.40
2019-05-03T20:55:55.758Z,90.50
2019-05-03T20:58:21.919Z,90.80
2019-05-03T21:00:48.058Z,90.90
2019-05-03T21:03:15.297Z,91.30
2019-05-03T21:05:41.862Z,91.50
2019-05-03T21:08:08.365Z,90.70
2019-05-03T21:10:34.825Z,91.20
2019-05-03T21:13:00.980Z,91.50
2019-05-03T21:15:45.795Z,92.70
2019-05-03T21:18:30.427Z,92.90
2019-05-03T21:21:07.899Z,93.10
2019-05-03T21:23:36.282Z,92.70
2019-05-03T21:26:13.733Z,92.90
2019-05-03T21:28:38.465Z,92.70
2019-05-03T21:31:05.838Z,93.20
2019-05-03T21:33:31.995Z,92.90
2019-05-03T21:35:58.160Z,93.30
2019-05-03T21:38:24.602Z,93.40
2019-05-03T21:40:50.890Z,93.80
2019-05-03T21:43:17.038Z,92.90
2019-05-03T21:45:45.409Z,93.50
2019-05-03T21:48:14.594Z,93.50
2019-05-03T21:50:41.110Z,94.50
2019-05-03T21:53:07.271Z,95.10
2019-05-03T21:55:35.318Z,94.70
2019-05-03T21:58:01.502Z,95.40
2019-05-03T22:00:30.335Z,94.80
2019-05-03T22:02:58.171Z,95.40
2019-05-03T22:05:26.492Z,95.10
2019-05-03T22:07:52.423Z,95.00
2019-05-03T22:10:18.888Z,95.70
2019-05-03T22:12:45.052Z,96.30
2019-05-03T22:15:14.950Z,95.50
2019-05-03T22:17:59.431Z,96.00
2019-05-03T22:20:27.486Z,96.40
2019-05-03T22:22:55.575Z,96.40
2019-05-03T22:25:29.524Z,95.70
2019-05-03T22:27:55.871Z,95.80
2019-05-03T22:30:22.034Z,96.00
2019-05-03T22:32:48.446Z,96.60
2019-05-03T22:35:15.716Z,96.60
2019-05-03T22:37:41.982Z,96.30
2019-05-03T22:40:08.234Z,96.30
2019-05-03T22:42:34.694Z,95.50
2019-05-03T22:45:04.693Z,95.90
2019-05-03T22:47:32.360Z,96.10
2019-05-03T22:49:59.511Z,96.10
2019-05-03T22:52:25.866Z,95.80
2019-05-03T22:54:52.134Z,95.50
2019-05-03T22:57:18.289Z,95.90
2019-05-03T22:59:44.874Z,95.40
2019-05-03T23:02:11.416Z,94.90
2019-05-03T23:04:37.562Z,95.70
2019-05-03T23:07:05.462Z,95.50
2019-05-03T23:09:31.820Z,96.10
2019-05-03T23:11:58.239Z,94.90
2019-05-03T23:14:25.537Z,94.70
2019-05-03T23:16:51.852Z,96.30
2019-05-03T23:19:18.091Z,96.10
2019-05-03T23:21:46.175Z,96.10
2019-05-03T23:24:12.325Z,95.10
2019-05-03T23:26:38.492Z,96.20
2019-05-03T23:29:04.643Z,96.70
2019-05-03T23:31:31.516Z,96.00
2019-05-03T23:33:57.966Z,97.10
2019-05-03T23:36:33.084Z,97.00
2019-05-03T23:38:52.174Z,95.60
2019-05-03T23:41:18.314Z,96.20
2019-05-03T23:43:45.145Z,96.60
2019-05-03T23:46:14.587Z,96.30
2019-05-03T23:48:40.871Z,97.20
2019-05-03T23:51:08.925Z,97.00
2019-05-03T23:53:35.082Z,97.60
2019-05-03T23:56:04.510Z,97.90
2019-05-03T23:58:30.799Z,96.70
